This is the latest recevied weather packets stored in our database for station/object SM0PQB-13. If no packets are shown the sender has not sent any weather packets the latest 1 day(s).
| Time | Temp. | Humidity | Pressure | Rain* | Wind** | Luminosity | Snow |
|---|---|---|---|---|---|---|---|
| 1778057353 | 23.33° C | 33% | 1011.9 hPa | - | - | - | - |
| 1778056752 | 23.33° C | 33% | 1012.1 hPa | - | - | - | - |
| 1778056152 | 23.33° C | 33% | 1011.9 hPa | - | - | - | - |
| 1778054952 | 23.33° C | 33% | 1011.8 hPa | - | - | - | - |
| 1778054352 | 23.33° C | 33% | 1011.7 hPa | - | - | - | - |
| 1778053153 | 23.89° C | 33% | 1011.5 hPa | - | - | - | - |
| 1778052552 | 23.89° C | 31% | 1011.6 hPa | - | - | - | - |
| 1778051354 | 23.33° C | 31% | 1011.5 hPa | - | - | - | - |
| 1778050153 | 23.89° C | 32% | 1011.5 hPa | - | - | - | - |
| 1778048953 | 23.33° C | 31% | 1011.7 hPa | - | - | - | - |
| 1778047753 | 23.33° C | 31% | 1011.6 hPa | - | - | - | - |
| 1778046552 | 22.78° C | 32% | 1011.5 hPa | - | - | - | - |
| 1778045352 | 22.78° C | 32% | 1011.2 hPa | - | - | - | - |
| 1778044753 | 22.78° C | 32% | 1011.2 hPa | - | - | - | - |
| 1778044153 | 22.78° C | 32% | 1011.2 hPa | - | - | - | - |
| 1778043552 | 22.78° C | 32% | 1011.2 hPa | - | - | - | - |
| 1778042352 | 22.22° C | 32% | 1011.1 hPa | - | - | - | - |
| 1778041753 | 22.78° C | 32% | 1011 hPa | - | - | - | - |
| 1778041153 | 20.56° C | 32% | 1008.1 hPa | - | - | - | - |
| 1778039952 | 22.22° C | 32% | 1010.8 hPa | - | - | - | - |
| 1778038752 | 22.22° C | 32% | 1010.6 hPa | - | - | - | - |
| 1778038152 | 22.22° C | 32% | 1010.5 hPa | - | - | - | - |
| 1778037552 | 22.22° C | 32% | 1010.4 hPa | - | - | - | - |
| 1778036352 | 22.78° C | 32% | 1010.2 hPa | - | - | - | - |
| 1778035752 | 22.22° C | 33% | 1010.1 hPa | - | - | - | - |
* Rain since midnight (hover to see other rain measurements)
** Current wind speed in m/s (hover to see current wind gust speed)